Time;durP1;ratioP1;P1;durP2;ratioP2;P2;SDS_P1;SDS_P2;PMS_P1;PMS_P2;Temp;Humidity;BMP_temperature;BMP_pressure;BME280_temperature;BME280_humidity;BME280_pressure;Samples;Min_cycle;Max_cycle;Signal;HPM_P1;HPM_P2
2023/11/07 00:00:57;;;;;;;4.73;3.10;;;9.20;88.40;;;;;;5138876;27;20493;-61
2023/11/07 00:03:24;;;;;;;6.17;2.80;;;9.20;45.40;;;;;;5137982;27;20459;-61
2023/11/07 00:05:52;;;;;;;8.43;2.90;;;9.10;45.00;;;;;;5138585;27;20751;-61
2023/11/07 00:08:19;;;;;;;3.70;2.67;;;9.10;38.60;;;;;;5138149;27;20759;-61
2023/11/07 00:10:46;;;;;;;7.47;2.50;;;9.10;37.00;;;;;;5137830;27;20450;-61
2023/11/07 00:13:13;;;;;;;5.90;2.50;;;9.10;48.00;;;;;;5137490;27;20901;-60
2023/11/07 00:15:41;;;;;;;6.23;2.60;;;9.00;74.40;;;;;;5137951;27;20491;-62
2023/11/07 00:18:10;;;;;;;4.30;2.23;;;9.00;94.40;;;;;;5138119;27;20494;-61
2023/11/07 00:20:37;;;;;;;4.63;2.00;;;9.00;99.90;;;;;;5138531;28;20905;-60
2023/11/07 00:23:06;;;;;;;3.97;2.37;;;9.00;99.90;;;;;;5138332;28;20832;-60
2023/11/07 00:25:33;;;;;;;5.33;2.80;;;9.00;99.90;;;;;;5138090;28;20905;-61
2023/11/07 00:28:00;;;;;;;4.43;2.17;;;9.00;99.90;;;;;;5137905;28;20440;-61
2023/11/07 00:30:27;;;;;;;8.03;2.33;;;9.00;99.90;;;;;;5137609;28;20745;-61
2023/11/07 00:32:55;;;;;;;5.43;2.60;;;9.10;99.90;;;;;;5138381;28;20946;-60
2023/11/07 00:35:23;;;;;;;4.00;3.13;;;9.10;99.90;;;;;;5137655;28;20457;-61
2023/11/07 00:37:51;;;;;;;5.77;3.03;;;9.20;47.60;;;;;;5137465;28;20535;-61
2023/11/07 00:40:18;;;;;;;5.93;2.73;;;9.20;15.10;;;;;;5138093;28;20429;-61
2023/11/07 00:42:46;;;;;;;5.70;2.10;;;9.30;1.00;;;;;;5137910;28;20578;-61
2023/11/07 00:45:13;;;;;;;5.23;2.30;;;9.30;1.00;;;;;;5138064;28;20507;-60
2023/11/07 00:47:40;;;;;;;3.93;2.40;;;9.30;1.00;;;;;;5137855;28;20755;-60
2023/11/07 00:50:10;;;;;;;7.80;2.20;;;9.40;1.00;;;;;;5137945;28;20552;-60
2023/11/07 00:52:39;;;;;;;5.03;2.20;;;9.40;1.00;;;;;;5137853;28;20457;-61
2023/11/07 00:55:07;;;;;;;4.60;2.20;;;9.40;1.00;;;;;;5138252;28;20507;-60
2023/11/07 00:57:34;;;;;;;5.57;2.27;;;9.40;1.00;;;;;;5137614;28;20450;-61
2023/11/07 01:00:02;;;;;;;3.03;1.87;;;9.40;1.00;;;;;;5137541;28;20464;-60
2023/11/07 01:02:29;;;;;;;5.30;2.17;;;9.40;1.00;;;;;;5137784;28;20784;-60
2023/11/07 01:04:56;;;;;;;3.53;1.90;;;9.40;1.00;;;;;;5137883;28;20955;-61
2023/11/07 01:07:23;;;;;;;4.30;2.30;;;9.40;1.00;;;;;;5137611;28;20468;-60
2023/11/07 01:09:52;;;;;;;4.40;2.07;;;9.50;1.00;;;;;;5137660;28;20460;-61
2023/11/07 01:12:19;;;;;;;3.40;2.20;;;9.50;1.00;;;;;;5137915;28;20497;-60
2023/11/07 01:14:46;;;;;;;3.73;2.20;;;9.50;1.00;;;;;;5137696;28;20501;-60
2023/11/07 01:17:14;;;;;;;3.70;1.80;;;9.50;1.00;;;;;;5137789;28;20764;-60
2023/11/07 01:19:41;;;;;;;3.77;1.90;;;9.50;1.00;;;;;;5137095;28;20547;-62
2023/11/07 01:22:08;;;;;;;4.10;2.13;;;9.50;1.00;;;;;;5137161;28;20487;-60
2023/11/07 01:24:35;;;;;;;3.90;2.47;;;9.50;1.00;;;;;;5137650;27;20454;-60
2023/11/07 01:27:04;;;;;;;3.30;1.87;;;9.50;1.00;;;;;;5141492;27;20455;-60
2023/11/07 01:29:31;;;;;;;4.27;2.30;;;9.50;1.00;;;;;;5141098;27;20462;-60
2023/11/07 01:31:58;;;;;;;5.93;2.30;;;9.50;1.00;;;;;;5140784;27;20807;-60
2023/11/07 01:34:25;;;;;;;4.43;2.40;;;9.50;1.00;;;;;;5141148;27;20461;-60
2023/11/07 01:36:53;;;;;;;4.60;1.90;;;9.50;1.00;;;;;;5141694;27;20552;-60
2023/11/07 01:39:20;;;;;;;5.53;2.20;;;9.50;1.00;;;;;;5140662;27;20553;-61
2023/11/07 01:41:47;;;;;;;4.40;2.20;;;9.50;1.00;;;;;;5140872;27;20872;-60
2023/11/07 01:44:16;;;;;;;3.23;1.90;;;9.50;1.00;;;;;;5140994;27;20454;-61
2023/11/07 01:46:44;;;;;;;5.23;2.33;;;9.50;1.00;;;;;;5141186;27;20454;-61
2023/11/07 01:49:11;;;;;;;5.80;2.10;;;9.50;1.00;;;;;;5140419;27;20455;-60
2023/11/07 01:51:38;;;;;;;3.80;1.83;;;9.50;1.00;;;;;;5140763;27;20887;-61
2023/11/07 01:54:07;;;;;;;5.60;2.73;;;9.50;1.00;;;;;;5140777;27;20459;-61
2023/11/07 01:56:35;;;;;;;3.70;2.10;;;9.50;1.00;;;;;;5140933;27;20561;-60
2023/11/07 01:59:02;;;;;;;4.60;2.00;;;9.50;1.00;;;;;;5140694;27;20461;-60
2023/11/07 02:01:33;;;;;;;6.70;2.60;;;9.40;1.00;;;;;;5140663;27;20497;-60
2023/11/07 02:04:01;;;;;;;3.00;1.70;;;9.40;1.00;;;;;;5140682;27;20466;-60
2023/11/07 02:06:28;;;;;;;7.23;2.10;;;9.40;1.00;;;;;;5140660;27;20461;-60
2023/11/07 02:08:57;;;;;;;3.63;2.00;;;9.40;1.00;;;;;;5140617;27;20750;-59
2023/11/07 02:11:25;;;;;;;5.50;1.73;;;9.40;1.00;;;;;;5140180;27;20952;-60
2023/11/07 02:13:53;;;;;;;3.90;2.03;;;9.40;1.00;;;;;;5140403;27;20450;-60
2023/11/07 02:16:20;;;;;;;3.60;1.90;;;9.40;1.00;;;;;;5140481;27;20450;-60
2023/11/07 02:18:49;;;;;;;3.53;1.73;;;9.40;1.00;;;;;;5139884;27;20823;-60
2023/11/07 02:21:16;;;;;;;3.10;2.10;;;9.40;1.00;;;;;;5140096;27;20451;-60
2023/11/07 02:23:45;;;;;;;3.40;2.20;;;9.40;1.00;;;;;;5140023;27;20556;-60
2023/11/07 02:26:12;;;;;;;4.77;2.13;;;9.40;1.00;;;;;;5140385;27;20425;-60
2023/11/07 02:28:39;;;;;;;5.33;2.50;;;9.30;1.00;;;;;;5140208;27;20455;-60
2023/11/07 02:31:06;;;;;;;4.60;2.13;;;9.40;1.00;;;;;;5140496;27;20451;-60
2023/11/07 02:33:34;;;;;;;4.07;2.00;;;9.40;1.00;;;;;;5139683;27;20462;-60
2023/11/07 02:36:01;;;;;;;4.20;2.27;;;9.30;1.00;;;;;;5140006;27;20462;-60
2023/11/07 02:38:28;;;;;;;2.83;1.80;;;9.40;1.00;;;;;;5139875;27;20488;-60
2023/11/07 02:40:57;;;;;;;3.00;1.93;;;9.40;1.00;;;;;;5140199;27;20891;-60
2023/11/07 02:43:25;;;;;;;3.73;2.10;;;9.40;1.00;;;;;;5139725;27;20539;-60
2023/11/07 02:45:52;;;;;;;7.13;2.00;;;9.40;1.00;;;;;;5139645;27;20959;-60
2023/11/07 02:48:20;;;;;;;4.13;2.63;;;9.40;1.00;;;;;;5139442;27;20548;-60
2023/11/07 02:50:47;;;;;;;4.50;2.27;;;9.40;1.00;;;;;;5139778;27;20468;-60
2023/11/07 02:53:15;;;;;;;4.10;2.07;;;9.30;1.00;;;;;;5139250;27;20460;-60
2023/11/07 02:55:42;;;;;;;3.73;2.30;;;9.30;1.00;;;;;;5139331;27;20887;-60
2023/11/07 02:58:12;;;;;;;5.07;1.90;;;9.30;1.00;;;;;;5139514;27;20463;-60
2023/11/07 03:00:39;;;;;;;4.47;2.20;;;9.30;1.00;;;;;;5139841;27;20902;-60
2023/11/07 03:03:06;;;;;;;3.37;2.00;;;9.20;1.00;;;;;;5139515;27;20589;-60
2023/11/07 03:05:35;;;;;;;3.57;1.93;;;9.20;1.00;;;;;;5139650;27;20459;-60
2023/11/07 03:08:03;;;;;;;5.03;2.30;;;9.20;1.00;;;;;;5139267;27;20451;-60
2023/11/07 03:10:30;;;;;;;4.20;2.60;;;9.20;1.00;;;;;;5139511;27;20840;-60
2023/11/07 03:12:58;;;;;;;4.27;2.37;;;9.20;1.00;;;;;;5139316;27;20451;-59
2023/11/07 03:15:26;;;;;;;4.70;2.73;;;9.30;1.00;;;;;;5139331;27;20463;-60
2023/11/07 03:17:54;;;;;;;3.70;1.90;;;9.20;1.00;;;;;;5139392;27;20538;-60
2023/11/07 03:20:21;;;;;;;8.87;2.30;;;9.20;1.00;;;;;;5138508;27;20501;-59
2023/11/07 03:22:48;;;;;;;3.90;2.20;;;9.20;1.00;;;;;;5139229;27;20915;-60
2023/11/07 03:25:16;;;;;;;3.90;2.07;;;9.20;1.00;;;;;;5139127;27;20519;-59
2023/11/07 03:27:43;;;;;;;3.53;2.60;;;9.20;1.00;;;;;;5139001;27;20799;-59
2023/11/07 03:30:11;;;;;;;4.80;2.27;;;9.30;1.00;;;;;;5139120;27;20869;-60
2023/11/07 03:32:41;;;;;;;3.10;2.10;;;9.30;1.00;;;;;;5139291;27;20731;-59
2023/11/07 03:35:08;;;;;;;6.03;2.30;;;9.30;1.00;;;;;;5138098;27;20503;-60
2023/11/07 03:37:36;;;;;;;5.73;2.20;;;9.30;1.00;;;;;;5137736;27;20544;-60
2023/11/07 03:40:03;;;;;;;4.20;1.80;;;9.30;1.00;;;;;;5138040;27;20451;-60
2023/11/07 03:42:32;;;;;;;5.60;2.67;;;9.30;1.00;;;;;;5137513;27;20486;-59
2023/11/07 03:44:59;;;;;;;2.87;2.00;;;9.30;1.00;;;;;;5138922;27;20462;-60
2023/11/07 03:47:26;;;;;;;4.13;2.40;;;9.30;1.00;;;;;;5138075;27;20469;-59
2023/11/07 03:49:54;;;;;;;4.87;2.30;;;9.30;1.00;;;;;;5138149;27;20909;-60
2023/11/07 03:52:22;;;;;;;4.07;1.77;;;9.30;1.00;;;;;;5138709;27;20455;-60
2023/11/07 03:54:49;;;;;;;4.80;2.13;;;9.30;1.00;;;;;;5139054;27;20460;-60
2023/11/07 03:57:16;;;;;;;3.33;1.90;;;9.30;1.00;;;;;;5138074;27;20461;-60
2023/11/07 03:59:46;;;;;;;3.87;1.90;;;9.30;1.00;;;;;;5138267;27;20455;-60
2023/11/07 04:02:13;;;;;;;5.30;2.17;;;9.30;1.00;;;;;;5138202;27;20494;-59
2023/11/07 04:04:40;;;;;;;9.50;2.80;;;9.20;1.00;;;;;;5138476;27;20454;-60
2023/11/07 04:07:08;;;;;;;4.60;2.80;;;9.20;1.00;;;;;;5138375;27;20759;-59
2023/11/07 04:09:36;;;;;;;3.63;2.00;;;9.20;1.00;;;;;;5137803;27;20434;-60
2023/11/07 04:12:04;;;;;;;4.40;2.40;;;9.20;1.00;;;;;;5138529;27;20737;-60
2023/11/07 04:14:31;;;;;;;4.40;2.67;;;9.30;1.00;;;;;;5138448;27;20807;-60
2023/11/07 04:16:59;;;;;;;4.93;2.60;;;9.30;1.00;;;;;;5137961;27;20465;-60
2023/11/07 04:19:26;;;;;;;4.30;2.80;;;9.30;1.00;;;;;;5136773;27;20465;-60
2023/11/07 04:21:53;;;;;;;8.40;2.80;;;9.30;1.00;;;;;;5136562;28;20742;-60
2023/11/07 04:24:22;;;;;;;4.60;2.60;;;9.20;1.00;;;;;;5136655;28;20934;-61
2023/11/07 04:26:50;;;;;;;5.07;2.50;;;9.20;1.00;;;;;;5136919;28;20461;-60
2023/11/07 04:29:17;;;;;;;4.33;2.20;;;9.20;1.00;;;;;;5136756;28;20887;-60
2023/11/07 04:31:44;;;;;;;4.50;1.83;;;9.20;1.00;;;;;;5136155;28;20458;-60
2023/11/07 04:34:11;;;;;;;4.60;1.80;;;9.30;1.00;;;;;;5136922;28;20753;-60
2023/11/07 04:36:39;;;;;;;3.30;2.20;;;9.30;1.00;;;;;;5137641;28;20461;-59
2023/11/07 04:39:06;;;;;;;3.07;1.80;;;9.30;1.00;;;;;;5138037;28;20485;-59
2023/11/07 04:41:35;;;;;;;4.07;2.10;;;9.30;1.00;;;;;;5138023;28;20455;-60
2023/11/07 04:44:03;;;;;;;4.70;2.30;;;9.30;1.00;;;;;;5137746;28;20462;-59
2023/11/07 04:46:31;;;;;;;3.93;2.27;;;9.30;1.00;;;;;;5138158;28;20450;-60
2023/11/07 04:49:00;;;;;;;3.40;2.20;;;9.30;1.00;;;;;;5138105;28;20883;-60
2023/11/07 04:51:27;;;;;;;4.77;2.50;;;9.30;1.00;;;;;;5137521;28;20565;-60
2023/11/07 04:53:54;;;;;;;3.47;2.70;;;9.30;1.00;;;;;;5137878;28;20558;-59
2023/11/07 04:56:22;;;;;;;4.70;2.37;;;9.30;1.00;;;;;;5137896;28;20451;-59
2023/11/07 04:58:50;;;;;;;3.80;2.17;;;9.20;1.00;;;;;;5138307;27;20458;-59
2023/11/07 05:01:17;;;;;;;4.30;2.30;;;9.30;1.00;;;;;;5141323;27;20515;-60
2023/11/07 05:03:44;;;;;;;4.20;2.93;;;9.20;1.00;;;;;;5141675;27;20493;-60
2023/11/07 05:06:12;;;;;;;13.30;10.50;;;9.20;1.00;;;;;;5141415;27;20455;-59
2023/11/07 05:08:39;;;;;;;7.50;2.60;;;9.20;1.00;;;;;;5142331;27;20541;-60
2023/11/07 05:11:06;;;;;;;4.27;2.63;;;9.20;1.00;;;;;;5142004;27;20493;-59
2023/11/07 05:13:34;;;;;;;3.60;2.20;;;9.20;1.00;;;;;;5141791;27;20722;-59
2023/11/07 05:16:03;;;;;;;4.50;2.93;;;9.20;1.00;;;;;;5140827;27;20458;-61
2023/11/07 05:18:30;;;;;;;4.40;4.00;;;9.20;1.00;;;;;;5137052;27;20844;-60
2023/11/07 05:20:57;;;;;;;3.97;3.50;;;9.20;1.00;;;;;;5125370;27;20472;-60
2023/11/07 05:23:24;;;;;;;5.03;4.10;;;9.20;1.00;;;;;;5120532;28;20487;-59
2023/11/07 05:25:51;;;;;;;4.83;4.33;;;9.20;1.00;;;;;;5120827;28;20553;-59
2023/11/07 05:28:18;;;;;;;3.00;2.60;;;9.20;1.00;;;;;;5120835;28;20455;-60
2023/11/07 05:30:46;;;;;;;4.30;2.67;;;9.20;1.00;;;;;;5121087;28;20455;-60
2023/11/07 05:33:14;;;;;;;4.33;3.70;;;9.20;1.00;;;;;;5120558;28;20738;-60
2023/11/07 05:35:44;;;;;;;5.43;2.67;;;9.20;1.00;;;;;;5120446;28;20451;-59
2023/11/07 05:38:11;;;;;;;4.30;3.53;;;9.20;1.00;;;;;;5120492;28;20483;-60
2023/11/07 05:40:38;;;;;;;5.90;4.37;;;9.20;1.00;;;;;;5120438;28;20440;-59
2023/11/07 05:43:08;;;;;;;4.40;3.13;;;9.20;1.00;;;;;;5120627;28;20936;-60
2023/11/07 05:45:35;;;;;;;7.00;5.80;;;9.10;14.70;;;;;;5120404;28;20483;-59
2023/11/07 05:48:03;;;;;;;4.53;3.53;;;9.10;53.80;;;;;;5120387;28;20833;-60
2023/11/07 05:50:32;;;;;;;4.40;2.87;;;9.10;59.10;;;;;;5120578;28;20788;-59
2023/11/07 05:52:59;;;;;;;6.70;2.63;;;9.10;56.30;;;;;;5120425;28;20456;-60
2023/11/07 05:55:26;;;;;;;5.13;4.13;;;9.10;96.90;;;;;;5120002;28;20460;-60
2023/11/07 05:57:53;;;;;;;2.80;2.10;;;9.10;99.90;;;;;;5128354;27;20469;-59
2023/11/07 06:00:21;;;;;;;6.50;2.90;;;9.10;99.90;;;;;;5139976;27;20459;-60
2023/11/07 06:02:48;;;;;;;5.17;3.07;;;9.10;99.90;;;;;;5139934;27;20453;-59
2023/11/07 06:05:15;;;;;;;5.63;3.70;;;9.10;99.90;;;;;;5140680;27;20446;-60
2023/11/07 06:07:43;;;;;;;5.03;2.40;;;9.10;99.90;;;;;;5140213;27;20530;-60
2023/11/07 06:10:11;;;;;;;7.00;3.40;;;9.10;99.90;;;;;;5140248;27;20451;-60
2023/11/07 06:12:38;;;;;;;7.40;4.50;;;9.10;99.90;;;;;;5139700;27;20465;-60
2023/11/07 06:15:07;;;;;;;15.33;7.63;;;9.00;99.90;;;;;;5139301;27;20960;-60
2023/11/07 06:17:34;;;;;;;9.10;3.93;;;9.00;99.90;;;;;;5139890;27;20484;-60
2023/11/07 06:20:01;;;;;;;14.93;6.93;;;9.00;99.90;;;;;;5138818;27;20891;-60
2023/11/07 06:22:28;;;;;;;6.83;3.47;;;9.00;99.90;;;;;;5138914;27;20455;-60
2023/11/07 06:24:57;;;;;;;9.27;5.10;;;9.00;99.90;;;;;;5139051;27;20454;-60
2023/11/07 06:27:24;;;;;;;17.80;9.63;;;8.90;99.90;;;;;;5138613;27;20827;-60
2023/11/07 06:29:51;;;;;;;5.97;2.87;;;9.00;99.90;;;;;;5138561;27;20451;-60
2023/11/07 06:32:18;;;;;;;5.23;3.60;;;9.00;99.90;;;;;;5138971;27;20766;-60
2023/11/07 06:34:46;;;;;;;6.33;3.90;;;8.90;99.90;;;;;;5139537;27;20549;-61
2023/11/07 06:37:13;;;;;;;5.67;4.20;;;8.90;99.90;;;;;;5139255;27;20523;-60
2023/11/07 06:39:40;;;;;;;5.97;4.23;;;9.00;1.00;;;;;;5139980;27;20455;-60
2023/11/07 06:42:09;;;;;;;6.37;4.00;;;9.00;1.00;;;;;;5139953;27;20880;-62
2023/11/07 06:44:36;;;;;;;2.90;2.00;;;9.00;1.00;;;;;;5139810;27;20467;-63
2023/11/07 06:47:04;;;;;;;3.37;2.60;;;9.00;99.90;;;;;;5140149;27;20864;-63
2023/11/07 06:49:31;;;;;;;4.40;2.07;;;9.00;99.90;;;;;;5139558;27;20557;-63
2023/11/07 06:51:59;;;;;;;4.80;2.47;;;9.00;99.90;;;;;;5139739;27;20450;-63
2023/11/07 06:54:26;;;;;;;4.70;2.23;;;9.00;99.90;;;;;;5139288;27;20429;-63
2023/11/07 06:56:54;;;;;;;3.50;2.20;;;9.00;99.90;;;;;;5139905;27;20433;-63
2023/11/07 06:59:22;;;;;;;4.17;2.07;;;9.00;99.90;;;;;;5139037;27;20461;-62
2023/11/07 07:01:51;;;;;;;3.90;2.10;;;9.00;99.90;;;;;;5139520;27;20554;-63
2023/11/07 07:04:18;;;;;;;4.63;2.17;;;9.00;99.90;;;;;;5139817;27;20497;-63
2023/11/07 07:06:46;;;;;;;3.57;2.23;;;9.00;99.90;;;;;;5139629;27;20796;-63
2023/11/07 07:09:13;;;;;;;2.70;1.80;;;9.10;99.90;;;;;;5139749;27;20518;-63
2023/11/07 07:11:41;;;;;;;3.43;2.20;;;9.00;99.90;;;;;;5139036;27;20455;-63
2023/11/07 07:14:08;;;;;;;3.50;2.53;;;9.00;99.90;;;;;;5138845;27;20507;-62
2023/11/07 07:16:37;;;;;;;3.10;2.23;;;9.00;99.90;;;;;;5139535;27;20459;-62
2023/11/07 07:19:07;;;;;;;5.07;2.60;;;9.00;99.90;;;;;;5139395;27;20553;-63
2023/11/07 07:21:35;;;;;;;2.97;1.90;;;9.00;99.90;;;;;;5139334;27;20479;-63
2023/11/07 07:24:15;;;;;;;4.33;2.13;;;9.00;99.90;;;;;;5138014;27;20465;-63
2023/11/07 07:26:46;;;;;;;6.60;2.37;;;9.00;99.90;;;;;;5139387;27;20443;-63
2023/11/07 07:29:13;;;;;;;2.73;1.80;;;9.00;99.90;;;;;;5139264;27;20458;-63
2023/11/07 07:31:44;;;;;;;4.33;2.20;;;9.10;99.90;;;;;;5139039;27;20458;-63
2023/11/07 07:34:12;;;;;;;3.33;2.00;;;9.10;99.90;;;;;;5137731;27;20786;-63
2023/11/07 07:36:44;;;;;;;3.90;1.90;;;9.10;99.90;;;;;;5137719;27;20486;-63
2023/11/07 07:39:27;;;;;;;2.70;1.80;;;9.10;99.90;;;;;;5137447;27;20591;-63
2023/11/07 07:41:56;;;;;;;3.50;2.40;;;9.00;99.90;;;;;;5137644;27;20948;-63
2023/11/07 07:44:25;;;;;;;4.90;1.80;;;9.00;99.90;;;;;;5137578;27;20493;-63
2023/11/07 07:46:56;;;;;;;2.80;2.07;;;9.10;99.90;;;;;;5137563;27;20433;-62
2023/11/07 07:49:25;;;;;;;6.27;2.40;;;9.10;99.90;;;;;;5138540;27;20433;-63
2023/11/07 07:51:53;;;;;;;5.10;2.50;;;9.10;99.90;;;;;;5138651;27;20455;-63
2023/11/07 07:54:22;;;;;;;2.37;1.77;;;9.20;99.90;;;;;;5139010;27;20510;-63
2023/11/07 07:56:51;;;;;;;2.50;1.60;;;9.20;99.90;;;;;;5138680;27;20906;-62
2023/11/07 07:59:22;;;;;;;4.40;2.10;;;9.30;99.90;;;;;;5138243;27;20458;-63
2023/11/07 08:01:52;;;;;;;4.43;2.07;;;9.30;99.90;;;;;;5138119;27;20462;-63
2023/11/07 08:04:22;;;;;;;2.97;1.73;;;9.40;99.90;;;;;;5136925;27;20486;-63
2023/11/07 08:06:49;;;;;;;3.17;1.90;;;9.40;99.90;;;;;;5137738;27;20454;-63
2023/11/07 08:09:19;;;;;;;3.63;2.00;;;9.40;99.90;;;;;;5137459;27;20871;-63
2023/11/07 08:11:48;;;;;;;2.70;1.80;;;9.50;99.90;;;;;;5137367;27;20879;-62
2023/11/07 08:14:16;;;;;;;3.60;2.00;;;9.60;99.90;;;;;;5137711;27;20461;-62
2023/11/07 08:16:44;;;;;;;2.80;1.80;;;9.60;26.30;;;;;;5136381;27;20455;-62
2023/11/07 08:19:11;;;;;;;3.10;1.77;;;9.60;18.50;;;;;;5136822;27;20455;-62
2023/11/07 08:21:41;;;;;;;3.10;2.00;;;9.70;1.00;;;;;;5136723;27;20481;-62
2023/11/07 08:24:09;;;;;;;3.33;1.73;;;9.70;1.00;;;;;;5136799;28;20492;-62
2023/11/07 08:26:37;;;;;;;2.73;1.83;;;9.80;1.00;;;;;;5136729;28;20879;-62
2023/11/07 08:29:06;;;;;;;3.03;1.77;;;9.90;1.00;;;;;;5136736;28;20565;-62
2023/11/07 08:31:33;;;;;;;3.53;1.97;;;9.90;1.00;;;;;;5137648;28;20447;-62
2023/11/07 08:34:00;;;;;;;2.70;1.73;;;10.00;1.00;;;;;;5138951;27;20943;-61
2023/11/07 08:36:30;;;;;;;2.80;1.80;;;10.10;1.00;;;;;;5142615;27;20497;-62
2023/11/07 08:38:59;;;;;;;6.50;2.13;;;10.10;99.90;;;;;;5142121;27;20787;-63
2023/11/07 08:41:26;;;;;;;2.60;1.80;;;10.20;99.90;;;;;;5141846;27;20919;-63
2023/11/07 08:43:53;;;;;;;2.57;2.10;;;10.30;99.90;;;;;;5142189;27;20573;-63
2023/11/07 08:46:23;;;;;;;3.20;1.90;;;10.40;99.90;;;;;;5141805;27;20770;-62
2023/11/07 08:48:53;;;;;;;3.37;2.20;;;10.40;99.90;;;;;;5142034;27;20472;-63
2023/11/07 08:51:20;;;;;;;2.63;1.70;;;10.40;99.90;;;;;;5142589;27;20837;-63
2023/11/07 08:53:48;;;;;;;3.40;2.03;;;10.50;5.40;;;;;;5133898;27;20464;-64
2023/11/07 08:56:16;;;;;;;2.60;1.70;;;10.70;1.00;;;;;;5134585;27;20890;-63
2023/11/07 08:58:45;;;;;;;3.90;1.67;;;10.70;1.00;;;;;;5142262;27;20487;-62
2023/11/07 09:01:13;;;;;;;3.07;2.20;;;10.80;1.00;;;;;;5141381;27;20495;-62
2023/11/07 09:03:40;;;;;;;3.20;1.80;;;10.70;1.00;;;;;;5141723;27;20494;-63
2023/11/07 09:06:08;;;;;;;2.53;1.60;;;10.50;1.00;;;;;;5141668;27;20524;-63
2023/11/07 09:08:35;;;;;;;4.80;2.37;;;10.50;1.00;;;;;;5141775;27;20458;-63
2023/11/07 09:11:03;;;;;;;3.17;1.70;;;10.40;1.00;;;;;;5141602;27;20454;-62
2023/11/07 09:13:31;;;;;;;2.90;1.83;;;10.40;1.00;;;;;;5140143;27;20478;-62
2023/11/07 09:15:59;;;;;;;3.90;2.40;;;10.40;1.00;;;;;;5139914;27;20762;-63
2023/11/07 09:18:27;;;;;;;2.80;1.97;;;10.50;1.00;;;;;;5141056;27;20454;-63
2023/11/07 09:20:54;;;;;;;2.90;2.17;;;10.50;1.00;;;;;;5139004;27;20654;-63
2023/11/07 09:23:21;;;;;;;3.80;2.10;;;10.60;1.00;;;;;;5140022;27;20455;-63
2023/11/07 09:25:50;;;;;;;2.60;1.70;;;10.70;1.00;;;;;;5122639;27;20537;-63
2023/11/07 09:28:18;;;;;;;4.37;1.73;;;10.70;1.00;;;;;;5139803;27;20455;-62
2023/11/07 09:30:46;;;;;;;2.80;2.00;;;10.70;1.00;;;;;;5140019;27;20750;-64
2023/11/07 09:33:14;;;;;;;4.77;2.07;;;10.70;1.00;;;;;;5140041;27;20820;-62
2023/11/07 09:35:41;;;;;;;2.60;2.00;;;10.70;99.90;;;;;;5138769;27;20539;-63
2023/11/07 09:38:08;;;;;;;3.63;1.90;;;10.70;99.90;;;;;;5138581;27;20506;-64
2023/11/07 09:40:36;;;;;;;4.50;1.93;;;10.70;99.90;;;;;;5139016;27;20455;-65
2023/11/07 09:43:04;;;;;;;3.53;2.20;;;10.80;99.90;;;;;;5139451;27;20494;-63
2023/11/07 09:45:36;;;;;;;4.13;2.30;;;10.80;99.90;;;;;;5138454;27;20498;-63
2023/11/07 09:48:09;;;;;;;4.57;1.90;;;10.90;99.90;;;;;;5139535;27;20508;-63
2023/11/07 09:50:41;;;;;;;5.07;2.20;;;10.90;99.90;;;;;;5139421;27;20698;-63
2023/11/07 09:53:11;;;;;;;3.50;2.33;;;11.00;99.90;;;;;;5138849;27;20502;-64
2023/11/07 09:55:39;;;;;;;4.97;2.30;;;11.20;99.90;;;;;;5138958;27;20949;-63
2023/11/07 09:58:10;;;;;;;3.73;2.30;;;11.30;99.90;;;;;;5139721;27;20459;-63
2023/11/07 10:00:38;;;;;;;5.13;2.50;;;11.50;84.90;;;;;;5138937;27;20450;-63
2023/11/07 10:03:07;;;;;;;4.80;2.40;;;11.30;1.00;;;;;;5140084;27;20455;-62
2023/11/07 10:05:38;;;;;;;3.87;1.87;;;11.30;1.00;;;;;;5138571;27;20461;-62
2023/11/07 10:08:06;;;;;;;6.47;2.03;;;11.10;1.00;;;;;;5138379;27;20458;-61
2023/11/07 10:10:34;;;;;;;3.00;2.00;;;10.90;1.00;;;;;;5138964;27;20503;-61
2023/11/07 10:13:11;;;;;;;6.33;2.53;;;10.80;29.40;;;;;;5139322;27;20550;-62
2023/11/07 10:15:39;;;;;;;5.33;2.43;;;10.80;3.90;;;;;;5137613;27;21070;-62
2023/11/07 10:18:10;;;;;;;5.70;2.40;;;10.80;99.90;;;;;;5138613;27;20482;-62
2023/11/07 10:20:50;;;;;;;4.50;2.07;;;10.90;90.90;;;;;;5139179;27;20527;-62
2023/11/07 10:23:18;;;;;;;5.00;2.30;;;10.90;1.00;;;;;;5139995;27;20545;-61
2023/11/07 10:25:49;;;;;;;5.97;2.37;;;11.00;1.00;;;;;;5140391;27;20543;-61
2023/11/07 10:28:18;;;;;;;4.30;2.20;;;10.80;1.00;;;;;;5139806;27;20562;-61
2023/11/07 10:30:46;;;;;;;4.83;2.37;;;10.80;1.00;;;;;;5140686;27;20562;-61
2023/11/07 10:33:25;;;;;;;7.87;2.30;;;10.90;5.40;;;;;;5139803;27;20545;-61
2023/11/07 10:35:55;;;;;;;5.27;2.37;;;11.00;1.00;;;;;;5140005;27;20457;-62
2023/11/07 10:38:24;;;;;;;3.40;2.53;;;11.00;1.00;;;;;;5139931;27;20478;-61
2023/11/07 10:40:52;;;;;;;3.97;2.47;;;10.90;1.00;;;;;;5140416;27;20459;-61
2023/11/07 10:43:33;;;;;;;7.30;2.60;;;10.80;1.00;;;;;;5139743;27;20867;-62
2023/11/07 10:46:03;;;;;;;4.60;2.43;;;10.80;1.00;;;;;;5139714;27;20501;-61
2023/11/07 10:48:38;;;;;;;5.70;2.03;;;10.70;1.00;;;;;;5140585;27;20433;-61
2023/11/07 10:51:06;;;;;;;8.67;3.10;;;10.80;1.00;;;;;;5139997;27;20454;-61
2023/11/07 10:53:34;;;;;;;4.13;2.40;;;10.70;1.00;;;;;;5139669;27;20500;-61
2023/11/07 10:56:03;;;;;;;4.80;2.20;;;10.80;1.00;;;;;;5139522;27;20476;-62
2023/11/07 10:58:32;;;;;;;4.73;2.10;;;10.70;1.00;;;;;;5139818;27;20484;-62
2023/11/07 11:01:03;;;;;;;4.03;2.10;;;10.70;1.00;;;;;;5140002;27;20459;-61
2023/11/07 11:03:36;;;;;;;5.93;2.10;;;10.80;1.00;;;;;;5139289;27;20433;-62
2023/11/07 11:06:05;;;;;;;4.70;2.30;;;10.80;1.00;;;;;;5139667;27;20486;-61
2023/11/07 11:08:34;;;;;;;4.37;2.47;;;10.90;1.00;;;;;;5139543;27;20891;-61
2023/11/07 11:11:06;;;;;;;3.50;2.27;;;11.00;1.00;;;;;;5139418;27;20455;-61
2023/11/07 11:13:35;;;;;;;5.07;2.40;;;11.00;1.00;;;;;;5139180;27;20463;-61
2023/11/07 11:16:03;;;;;;;3.13;2.23;;;10.80;1.00;;;;;;5139443;27;20454;-62
2023/11/07 11:18:38;;;;;;;7.17;2.50;;;10.90;1.00;;;;;;5139292;27;20461;-61
2023/11/07 11:21:16;;;;;;;5.90;2.20;;;11.00;1.00;;;;;;5138854;27;20818;-61
2023/11/07 11:23:53;;;;;;;4.20;2.17;;;11.00;1.00;;;;;;5138758;27;20497;-61
2023/11/07 11:26:28;;;;;;;5.20;2.20;;;11.00;1.00;;;;;;5139082;27;20492;-61
2023/11/07 11:28:55;;;;;;;3.40;2.13;;;11.00;1.00;;;;;;5139289;27;20544;-63
2023/11/07 11:31:24;;;;;;;3.27;2.70;;;11.10;1.00;;;;;;5138292;27;20558;-62
2023/11/07 11:34:25;;;;;;;4.87;2.93;;;11.20;1.00;;;;;;5138661;27;20459;-61
2023/11/07 11:36:57;;;;;;;5.37;2.33;;;11.30;1.00;;;;;;5139046;27;20512;-62
2023/11/07 11:39:49;;;;;;;7.33;2.37;;;11.40;1.00;;;;;;5138794;27;20478;-62
2023/11/07 11:42:16;;;;;;;5.10;2.47;;;11.40;1.00;;;;;;5123270;27;20470;-61
2023/11/07 11:44:43;;;;;;;5.23;2.40;;;11.50;1.00;;;;;;5137693;27;20922;-62
2023/11/07 11:47:49;;;;;;;3.70;2.07;;;11.50;1.00;;;;;;5137252;27;20494;-61
2023/11/07 11:50:19;;;;;;;6.30;2.97;;;11.60;1.00;;;;;;5137810;27;20527;-61
2023/11/07 11:52:46;;;;;;;2.97;1.97;;;11.50;1.00;;;;;;5137792;27;20736;-61
2023/11/07 11:55:15;;;;;;;4.30;2.37;;;11.50;1.00;;;;;;5137826;27;20451;-62
2023/11/07 11:58:16;;;;;;;5.40;2.37;;;11.40;1.00;;;;;;5138535;27;20546;-61
2023/11/07 12:00:47;;;;;;;4.13;2.00;;;11.30;99.90;;;;;;5137000;27;20763;-62
2023/11/07 12:03:18;;;;;;;6.00;2.00;;;11.20;99.90;;;;;;5138041;27;20458;-62
2023/11/07 12:06:03;;;;;;;5.50;3.10;;;11.20;99.90;;;;;;5138148;27;20585;-62
2023/11/07 12:08:38;;;;;;;5.63;2.30;;;11.30;99.90;;;;;;5138419;27;20459;-62
2023/11/07 12:11:06;;;;;;;8.77;2.50;;;11.60;99.90;;;;;;5135551;27;20577;-62
2023/11/07 12:13:34;;;;;;;4.50;2.50;;;11.70;99.90;;;;;;5137225;27;20891;-62
2023/11/07 12:16:19;;;;;;;4.30;2.30;;;11.60;99.90;;;;;;5136826;27;20450;-62
2023/11/07 12:18:47;;;;;;;5.10;2.33;;;11.40;99.90;;;;;;5136786;27;20466;-61
2023/11/07 12:21:26;;;;;;;5.03;2.60;;;11.20;99.90;;;;;;5138536;27;20533;-62
2023/11/07 12:23:55;;;;;;;6.43;2.60;;;11.10;99.90;;;;;;5138139;28;20478;-62
2023/11/07 12:26:23;;;;;;;6.67;2.50;;;11.00;99.90;;;;;;5138460;28;20589;-61
2023/11/07 12:28:50;;;;;;;7.07;2.30;;;11.10;99.90;;;;;;5138228;28;20455;-62
2023/11/07 12:31:18;;;;;;;6.13;2.30;;;11.00;99.90;;;;;;5137929;28;20459;-61
2023/11/07 12:33:46;;;;;;;8.40;2.70;;;11.10;99.90;;;;;;5138141;28;20533;-62
2023/11/07 12:36:15;;;;;;;7.73;2.53;;;11.00;99.90;;;;;;5138185;28;20952;-62
2023/11/07 12:38:44;;;;;;;4.60;2.70;;;11.00;99.90;;;;;;5137812;28;20480;-65
2023/11/07 12:41:12;;;;;;;5.13;2.70;;;11.00;99.90;;;;;;5138724;28;20454;-67
2023/11/07 12:43:41;;;;;;;7.40;2.80;;;10.80;1.00;;;;;;5139377;28;20934;-66
2023/11/07 12:46:14;;;;;;;7.17;2.97;;;10.30;99.90;;;;;;5138072;28;20521;-69
2023/11/07 12:48:41;;;;;;;6.63;2.80;;;10.20;1.00;;;;;;5136412;28;20803;-66
2023/11/07 12:51:09;;;;;;;5.40;4.00;;;10.20;99.90;;;;;;5135393;28;20455;-68
2023/11/07 12:53:53;;;;;;;4.13;2.33;;;10.20;1.00;;;;;;5135301;28;20454;-68
2023/11/07 12:56:21;;;;;;;5.00;3.03;;;10.30;99.90;;;;;;5132967;28;20462;-68
2023/11/07 12:58:48;;;;;;;5.43;2.83;;;10.30;99.90;;;;;;5136196;28;20454;-67
2023/11/07 13:01:16;;;;;;;5.20;3.00;;;10.30;99.90;;;;;;5135518;28;20724;-67
2023/11/07 13:03:43;;;;;;;6.00;2.63;;;10.50;1.00;;;;;;5136803;28;20450;-67
2023/11/07 13:06:12;;;;;;;7.27;2.87;;;10.60;99.90;;;;;;5137855;28;21014;-67
2023/11/07 13:08:44;;;;;;;3.30;2.33;;;10.70;99.90;;;;;;5137723;28;20462;-67